Home > Products > Valid Products > TAF

000
FTUS43 KOAX 242320
TAFLNK
TAF
KLNK 242320Z 2500/2524 31018G24KT P6SM SKC
     FM250100 29008KT P6SM SKC
     FM251400 21008KT P6SM SCT030
     FM251800 18008KT P6SM OVC100=



000
FTUS43 KOAX 242320
TAFOFK
TAF
KOFK 242320Z 2500/2524 32018G28KT P6SM SKC
     FM250400 29005KT P6SM SKC
     FM251300 21009KT P6SM SCT030
     FM251800 20009KT P6SM OVC100=



000
FTUS43 KOAX 242320
TAFOMA
TAF
KOMA 242320Z 2500/2524 31017G22KT P6SM SKC
     FM250600 29006KT P6SM SKC
     FM251400 23008KT P6SM SCT035
     FM251800 18008KT P6SM OVC050=



000
FTUS43 KOAX 242320
TAFOMA
TAF
KOMA 242320Z 2500/2524 31017G22KT P6SM SKC
     FM250600 29006KT P6SM SKC
     FM251400 23008KT P6SM SCT035
     FM251800 18008KT P6SM OVC050=



000
FTUS43 KOAX 242320
TAFOFK
TAF
KOFK 242320Z 2500/2524 32018G28KT P6SM SKC
     FM250400 29005KT P6SM SKC
     FM251300 21009KT P6SM SCT030
     FM251800 20009KT P6SM OVC100=



000
FTUS43 KOAX 242320
TAFLNK
TAF
KLNK 242320Z 2500/2524 31018G24KT P6SM SKC
     FM250100 29008KT P6SM SKC
     FM251400 21008KT P6SM SCT030
     FM251800 18008KT P6SM OVC100=



000
FTUS43 KOAX 241720
TAFOFK
TAF
KOFK 241720Z 2418/2518 32020G31KT P6SM FEW025
     FM250000 32014KT P6SM SKC
     FM250400 29005KT P6SM SKC
     FM251300 21009KT P6SM SCT030=



000
FTUS43 KOAX 241720
TAFOMA
TAF
KOMA 241720Z 2418/2518 33018G27KT P6SM BKN025
     FM242000 32017G26KT P6SM SCT030
     FM250000 32014KT P6SM FEW035
     FM250600 29006KT P6SM SKC
     FM251400 23008KT P6SM SCT035=



000
FTUS43 KOAX 241720
TAFOFK
TAF
KOFK 241720Z 2418/2518 32020G31KT P6SM FEW025
     FM250000 32014KT P6SM SKC
     FM250400 29005KT P6SM SKC
     FM251300 21009KT P6SM SCT030=



000
FTUS43 KOAX 241720
TAFLNK
TAF
KLNK 241720Z 2418/2518 32020G30KT P6SM SCT030
      TEMPO 2418/2419 BKN030
     FM242300 32015KT P6SM SKC
     FM250100 29008KT P6SM SKC
     FM251400 21008KT P6SM SCT030=



000
FTUS43 KOAX 241720
TAFOMA
TAF
KOMA 241720Z 2418/2518 33018G27KT P6SM BKN025
     FM242000 32017G26KT P6SM SCT030
     FM250000 32014KT P6SM FEW035
     FM250600 29006KT P6SM SKC
     FM251400 23008KT P6SM SCT035=



000
FTUS43 KOAX 241720
TAFLNK
TAF
KLNK 241720Z 2418/2518 32020G30KT P6SM SCT030
      TEMPO 2418/2419 BKN030
     FM242300 32015KT P6SM SKC
     FM250100 29008KT P6SM SKC
     FM251400 21008KT P6SM SCT030=



000
FTUS43 KOAX 241121
TAFOFK
TAF
KOFK 241121Z 2412/2512 32022G30KT P6SM OVC025
     FM242000 32017G27KT P6SM SCT040
     FM250200 32014KT P6SM BKN150=



000
FTUS43 KOAX 241121
TAFLNK
TAF
KLNK 241121Z 2412/2512 32018G28KT P6SM OVC028
     FM241700 32018G28KT P6SM SCT040
     FM250000 32014KT P6SM SCT250=



000
FTUS43 KOAX 241121
TAFOMA
TAF
KOMA 241121Z 2412/2512 32020G30KT P6SM OVC028
     FM241700 32020G30KT P6SM OVC035
     FM250100 32015KT P6SM SCT250=



000
FTUS43 KOAX 241121
TAFLNK
TAF
KLNK 241121Z 2412/2512 32018G28KT P6SM OVC028
     FM241700 32018G28KT P6SM SCT040
     FM250000 32014KT P6SM SCT250=



000
FTUS43 KOAX 241121
TAFOFK
TAF
KOFK 241121Z 2412/2512 32022G30KT P6SM OVC025
     FM242000 32017G27KT P6SM SCT040
     FM250200 32014KT P6SM BKN150=



000
FTUS43 KOAX 241121
TAFOMA
TAF
KOMA 241121Z 2412/2512 32020G30KT P6SM OVC028
     FM241700 32020G30KT P6SM OVC035
     FM250100 32015KT P6SM SCT250=



000
FTUS43 KOAX 240734 AAA
TAFLNK
TAF AMD
KLNK 240734Z 2408/2506 32020G30KT P6SM OVC030
      TEMPO 2408/2410 SCT030
     FM241700 32020G30KT P6SM BKN040
     FM250000 32013KT P6SM SCT250=



000
FTUS43 KOAX 240734 AAA
TAFLNK
TAF AMD
KLNK 240734Z 2408/2506 32020G30KT P6SM OVC030
      TEMPO 2408/2410 SCT030
     FM241700 32020G30KT P6SM BKN040
     FM250000 32013KT P6SM SCT250=



000
FTUS43 KOAX 240557 AAA
TAFOFK
TAF AMD
KOFK 240557Z 2406/2506 33022G32KT P6SM OVC025
      TEMPO 2408/2412 -SN
     FM241600 32024G33KT P6SM BKN035
     FM250000 32015G23KT P6SM SCT250=



000
FTUS43 KOAX 240557 AAA
TAFOFK
TAF AMD
KOFK 240557Z 2406/2506 33022G32KT P6SM OVC025
      TEMPO 2408/2412 -SN
     FM241600 32024G33KT P6SM BKN035
     FM250000 32015G23KT P6SM SCT250=



000
FTUS43 KOAX 240557 AAA
TAFOMA
TAF AMD
KOMA 240557Z 2406/2506 32022G32KT P6SM OVC030
     FM240700 32020G30KT P6SM OVC025
     FM241800 33021G32KT P6SM BKN035
     FM250000 31015G23KT P6SM SCT250=



000
FTUS43 KOAX 240557 AAA
TAFOMA
TAF AMD
KOMA 240557Z 2406/2506 32022G32KT P6SM OVC030
     FM240700 32020G30KT P6SM OVC025
     FM241800 33021G32KT P6SM BKN035
     FM250000 31015G23KT P6SM SCT250=



000
FTUS43 KOAX 240520
TAFOMA
TAF
KOMA 240520Z 2406/2506 32022G32KT P6SM OVC035
     FM240700 32020G30KT P6SM OVC025
     FM241800 33021G32KT P6SM BKN035
     FM250000 31015G23KT P6SM SCT250=



000
FTUS43 KOAX 240520
TAFLNK
TAF
KLNK 240520Z 2406/2506 32020G30KT P6SM BKN035
      TEMPO 2410/2414 BKN025
     FM250000 32013KT P6SM SCT250=



000
FTUS43 KOAX 240520
TAFLNK
TAF
KLNK 240520Z 2406/2506 32020G30KT P6SM BKN035
      TEMPO 2410/2414 BKN025
     FM250000 32013KT P6SM SCT250=



000
FTUS43 KOAX 240520
TAFOMA
TAF
KOMA 240520Z 2406/2506 32022G32KT P6SM OVC035
     FM240700 32020G30KT P6SM OVC025
     FM241800 33021G32KT P6SM BKN035
     FM250000 31015G23KT P6SM SCT250=



000
FTUS43 KOAX 240520
TAFOFK
TAF
KOFK 240520Z 2406/2506 33022G32KT P6SM OVC035
     FM240800 32022G32KT P6SM OVC025
      TEMPO 2408/2412 -SN
     FM241600 32024G33KT P6SM BKN035
     FM250000 32015G23KT P6SM SCT250=



000
FTUS43 KOAX 240520
TAFOFK
TAF
KOFK 240520Z 2406/2506 33022G32KT P6SM OVC035
     FM240800 32022G32KT P6SM OVC025
      TEMPO 2408/2412 -SN
     FM241600 32024G33KT P6SM BKN035
     FM250000 32015G23KT P6SM SCT250=



000
FTUS43 KOAX 240356 AAB
TAFOMA
TAF AMD
KOMA 240356Z 2404/2424 32022G32KT P6SM OVC035
     FM240700 32020G30KT P6SM OVC025
     FM241600 33021G32KT P6SM BKN035=



000
FTUS43 KOAX 240356 AAB
TAFOMA
TAF AMD
KOMA 240356Z 2404/2424 32022G32KT P6SM OVC035
     FM240700 32020G30KT P6SM OVC025
     FM241600 33021G32KT P6SM BKN035=



000
FTUS43 KOAX 240356 AAB
TAFOMA
TAF AMD
KOMA 240356Z 2404/2424 32022G32KT P6SM OVC035
     FM240700 32020G30KT P6SM OVC025
     FM241600 33021G32KT P6SM BKN035=



000
FTUS43 KOAX 240356 AAB
TAFOMA
TAF AMD
KOMA 240356Z 2404/2424 32022G32KT P6SM OVC035
     FM240700 32020G30KT P6SM OVC025
     FM241600 33021G32KT P6SM BKN035=



000
FTUS43 KOAX 240212 AAA
TAFOMA
TAF AMD
KOMA 240212Z 2402/2424 33013G23KT P6SM OVC080
      TEMPO 2403/2407 BKN040
     FM240700 32020G30KT P6SM OVC025
     FM241600 33021G32KT P6SM BKN035=



000
FTUS43 KOAX 240212 AAA
TAFOMA
TAF AMD
KOMA 240212Z 2402/2424 33013G23KT P6SM OVC080
      TEMPO 2403/2407 BKN040
     FM240700 32020G30KT P6SM OVC025
     FM241600 33021G32KT P6SM BKN035=



000
FTUS43 KOAX 232320
TAFLNK
TAF
KLNK 232320Z 2400/2424 34017G25KT P6SM OVC100
      TEMPO 2405/2407 BKN035
     FM240700 31019G27KT P6SM OVC025
     FM241600 32021G32KT P6SM BKN035=



000
FTUS43 KOAX 232320
TAFOMA
TAF
KOMA 232320Z 2400/2424 33018G26KT P6SM OVC080
      TEMPO 2405/2407 BKN035
     FM240700 32020G30KT P6SM OVC025
     FM241600 33021G32KT P6SM BKN035=



000
FTUS43 KOAX 232320
TAFOFK
TAF
KOFK 232320Z 2400/2424 33018G27KT P6SM SCT050 OVC120
      TEMPO 2402/2404 BKN035
     FM240400 33021G28KT P6SM OVC025
      TEMPO 2406/2410 -SN BKN015
     FM241600 32024G33KT P6SM BKN035=



000
FTUS43 KOAX 232320
TAFLNK
TAF
KLNK 232320Z 2400/2424 34017G25KT P6SM OVC100
      TEMPO 2405/2407 BKN035
     FM240700 31019G27KT P6SM OVC025
     FM241600 32021G32KT P6SM BKN035=



000
FTUS43 KOAX 232320
TAFOFK
TAF
KOFK 232320Z 2400/2424 33018G27KT P6SM SCT050 OVC120
      TEMPO 2402/2404 BKN035
     FM240400 33021G28KT P6SM OVC025
      TEMPO 2406/2410 -SN BKN015
     FM241600 32024G33KT P6SM BKN035=



000
FTUS43 KOAX 232320
TAFOMA
TAF
KOMA 232320Z 2400/2424 33018G26KT P6SM OVC080
      TEMPO 2405/2407 BKN035
     FM240700 32020G30KT P6SM OVC025
     FM241600 33021G32KT P6SM BKN035=



000
FTUS43 KOAX 231725
TAFOMA
TAF
KOMA 231725Z 2318/2418 32020G30KT P6SM SCT020 BKN050
      TEMPO 2318/2319 -RA BKN020
     FM240200 33020G32KT P6SM OVC025
     FM241600 33021G32KT P6SM BKN035=



000
FTUS43 KOAX 231725
TAFLNK
TAF
KLNK 231725Z 2318/2418 35022G32KT P6SM BKN050
     FM240100 33022G32KT P6SM OVC035=



000
FTUS43 KOAX 231725
TAFOFK
TAF
KOFK 231725Z 2318/2418 33016G24KT P6SM SCT020 BKN050 OVC110
      TEMPO 2318/2319 -RA BKN020
     FM240100 33023G33KT P6SM OVC025
     FM241600 32023G33KT P6SM BKN035=



000
FTUS43 KOAX 231725
TAFLNK
TAF
KLNK 231725Z 2318/2418 35022G32KT P6SM BKN050
     FM240100 33022G32KT P6SM OVC035=



000
FTUS43 KOAX 231725
TAFOFK
TAF
KOFK 231725Z 2318/2418 33016G24KT P6SM SCT020 BKN050 OVC110
      TEMPO 2318/2319 -RA BKN020
     FM240100 33023G33KT P6SM OVC025
     FM241600 32023G33KT P6SM BKN035=



000
FTUS43 KOAX 231725
TAFOMA
TAF
KOMA 231725Z 2318/2418 32020G30KT P6SM SCT020 BKN050
      TEMPO 2318/2319 -RA BKN020
     FM240200 33020G32KT P6SM OVC025
     FM241600 33021G32KT P6SM BKN035=



000
FTUS43 KOAX 231542 AAB
TAFOMA
TAF AMD
KOMA 231542Z 2316/2412 17009KT P6SM -RA BKN009 BKN012
     FM231600 30011KT P6SM BKN015 OVC060
     FM231800 33014G22KT P6SM SCT025 OVC060
      TEMPO 2318/2321 5SM -SHRA BKN015
     FM232100 33018G30KT P6SM OVC040
     FM240100 33020G32KT P6SM OVC020=



000
FTUS43 KOAX 231310 AAA
TAFLNK
TAF AMD
KLNK 231310Z 2313/2412 19008KT P6SM SCT015 OVC035
      TEMPO 2313/2315 4SM -DZ BR OVC015
     FM231500 34014G20KT P6SM SCT025 OVC040
      TEMPO 2315/2318 5SM -SHRA BKN025
     FM231800 34020G30KT P6SM OVC040
     FM240100 33022G32KT P6SM OVC040=



000
FTUS43 KOAX 231310 AAA
TAFLNK
TAF AMD
KLNK 231310Z 2313/2412 19008KT P6SM SCT015 OVC035
      TEMPO 2313/2315 4SM -DZ BR OVC015
     FM231500 34014G20KT P6SM SCT025 OVC040
      TEMPO 2315/2318 5SM -SHRA BKN025
     FM231800 34020G30KT P6SM OVC040
     FM240100 33022G32KT P6SM OVC040=



000
FTUS43 KOAX 231307 AAA
TAFOFK
TAF AMD
KOFK 231307Z 2313/2412 33016G24KT P6SM SCT025 BKN150
      TEMPO 2314/2316 5SM -SHRA BKN025
     FM231600 33018G28KT P6SM OVC035
      TEMPO 2316/2319 5SM -SHRA
     FM232000 33020G30KT P6SM OVC035
     FM240300 33023G33KT P6SM OVC035=



000
FTUS43 KOAX 231307 AAA
TAFOFK
TAF AMD
KOFK 231307Z 2313/2412 33016G24KT P6SM SCT025 BKN150
      TEMPO 2314/2316 5SM -SHRA BKN025
     FM231600 33018G28KT P6SM OVC035
      TEMPO 2316/2319 5SM -SHRA
     FM232000 33020G30KT P6SM OVC035
     FM240300 33023G33KT P6SM OVC035=



000
FTUS43 KOAX 231244 AAA
TAFOMA
TAF AMD
KOMA 231244Z 2313/2412 17009KT P6SM BKN007 OVC040
      TEMPO 2313/2315 2SM -DZ BR SCT007 OVC015
     FM231500 22006KT 2SM -DZ BR OVC015
      TEMPO 2315/2317 1SM -DZ BR OVC008
     FM231800 33014G22KT P6SM OVC040
      TEMPO 2318/2321 5SM -SHRA BKN015
     FM232100 33018G30KT P6SM OVC040
     FM240100 33020G32KT P6SM OVC020=



000
FTUS43 KOAX 231244 AAA
TAFOMA
TAF AMD
KOMA 231244Z 2313/2412 17009KT P6SM BKN007 OVC040
      TEMPO 2313/2315 2SM -DZ BR SCT007 OVC015
     FM231500 22006KT 2SM -DZ BR OVC015
      TEMPO 2315/2317 1SM -DZ BR OVC008
     FM231800 33014G22KT P6SM OVC040
      TEMPO 2318/2321 5SM -SHRA BKN015
     FM232100 33018G30KT P6SM OVC040
     FM240100 33020G32KT P6SM OVC020=



000
FTUS43 KOAX 231130
TAFOFK
TAF
KOFK 231130Z 2312/2412 29009KT 5SM BR SCT015 BKN150
     FM231300 33013G20KT P6SM BKN150
     FM231600 33018G28KT P6SM SCT040 BKN150
      TEMPO 2316/2320 5SM -SHRA BKN040
     FM232000 33020G30KT P6SM OVC035
     FM240500 33023G33KT P6SM OVC035=



000
FTUS43 KOAX 231130
TAFOFK
TAF
KOFK 231130Z 2312/2412 29009KT 5SM BR SCT015 BKN150
     FM231300 33013G20KT P6SM BKN150
     FM231600 33018G28KT P6SM SCT040 BKN150
      TEMPO 2316/2320 5SM -SHRA BKN040
     FM232000 33020G30KT P6SM OVC035
     FM240500 33023G33KT P6SM OVC035=



000
FTUS43 KOAX 231130
TAFOMA
TAF
KOMA 231130Z 2312/2412 17009KT P6SM SCT020 OVC040
     FM231500 22007KT P6SM OVC040
      TEMPO 2315/2318 5SM -SHRA
     FM231800 33014G22KT P6SM OVC040
      TEMPO 2318/2321 5SM -SHRA BKN015
     FM232100 33018G30KT P6SM OVC040
     FM240100 33020G32KT P6SM OVC020=



000
FTUS43 KOAX 231130
TAFLNK
TAF
KLNK 231130Z 2312/2412 19008KT P6SM SCT025 OVC035
     FM231500 34014G20KT P6SM SCT025 OVC040
      TEMPO 2315/2318 5SM -SHRA BKN025
     FM231800 34020G30KT P6SM OVC040
     FM240100 33022G32KT P6SM OVC040=



000
FTUS43 KOAX 231130
TAFOMA
TAF
KOMA 231130Z 2312/2412 17009KT P6SM SCT020 OVC040
     FM231500 22007KT P6SM OVC040
      TEMPO 2315/2318 5SM -SHRA
     FM231800 33014G22KT P6SM OVC040
      TEMPO 2318/2321 5SM -SHRA BKN015
     FM232100 33018G30KT P6SM OVC040
     FM240100 33020G32KT P6SM OVC020=



000
FTUS43 KOAX 231130
TAFLNK
TAF
KLNK 231130Z 2312/2412 19008KT P6SM SCT025 OVC035
     FM231500 34014G20KT P6SM SCT025 OVC040
      TEMPO 2315/2318 5SM -SHRA BKN025
     FM231800 34020G30KT P6SM OVC040
     FM240100 33022G32KT P6SM OVC040=



000
FTUS43 KOAX 230908 AAA
TAFLNK
TAF AMD
KLNK 230908Z 2309/2406 19010KT P6SM SCT015 OVC025
      TEMPO 2309/2312 5SM BR OVC015
     FM231200 19006KT 5SM BR OVC015
     FM231400 32009KT 5SM BR VCSH SCT007 OVC015
     FM231600 34018G28KT P6SM SCT015 OVC025 PROB30 2318/2322 5SM
      -SHRA BKN015
     FM232200 34020G29KT P6SM BKN035=



000
FTUS43 KOAX 230906 AAA
TAFOMA
TAF AMD
KOMA 230906Z 2309/2406 17009KT P6SM SCT012 OVC025
      TEMPO 2309/2312 5SM BR BKN012
     FM231200 16007KT 4SM BR OVC015
     FM231500 32009KT 5SM BR VCSH SCT007 OVC010
     FM231700 34018G28KT P6SM SCT015 OVC025 PROB30 2318/2323 5SM
      -SHRA BKN015
     FM232300 33020G29KT P6SM BKN035=



000
FTUS43 KOAX 230906 AAA
TAFOMA
TAF AMD
KOMA 230906Z 2309/2406 17009KT P6SM SCT012 OVC025
      TEMPO 2309/2312 5SM BR BKN012
     FM231200 16007KT 4SM BR OVC015
     FM231500 32009KT 5SM BR VCSH SCT007 OVC010
     FM231700 34018G28KT P6SM SCT015 OVC025 PROB30 2318/2323 5SM
      -SHRA BKN015
     FM232300 33020G29KT P6SM BKN035=



000
FTUS43 KOAX 230838 AAB
TAFOFK
TAF AMD
KOFK 230838Z 2309/2406 18006KT P6SM SCT012 BKN100
      TEMPO 2309/2311 5SM BR OVC012
     FM231100 33011KT P6SM SCT015 BKN110
     FM231500 33015G25KT P6SM SCT015 OVC035 PROB30 2318/2321 5SM
      -SHRA BKN025
     FM232200 33020G30KT P6SM BKN035=



000
FTUS43 KOAX 230838 AAB
TAFOFK
TAF AMD
KOFK 230838Z 2309/2406 18006KT P6SM SCT012 BKN100
      TEMPO 2309/2311 5SM BR OVC012
     FM231100 33011KT P6SM SCT015 BKN110
     FM231500 33015G25KT P6SM SCT015 OVC035 PROB30 2318/2321 5SM
      -SHRA BKN025
     FM232200 33020G30KT P6SM BKN035=



000
FTUS43 KOAX 230713 AAA
TAFOFK
TAF AMD
KOFK 230713Z 2307/2406 25006KT 4SM BR OVC005
      TEMPO 2307/2311 1 1/2SM BR OVC002
     FM231100 33011KT P6SM SCT015 BKN110
     FM231500 33015G25KT P6SM SCT015 OVC035 PROB30 2317/2321 5SM
      -SHRA BKN025
     FM232200 33020G30KT P6SM BKN035=



000
FTUS43 KOAX 230713 AAA
TAFOFK
TAF AMD
KOFK 230713Z 2307/2406 25006KT 4SM BR OVC005
      TEMPO 2307/2311 1 1/2SM BR OVC002
     FM231100 33011KT P6SM SCT015 BKN110
     FM231500 33015G25KT P6SM SCT015 OVC035 PROB30 2317/2321 5SM
      -SHRA BKN025
     FM232200 33020G30KT P6SM BKN035=



000
FTUS43 KOAX 230520
TAFOMA
TAF
KOMA 230520Z 2306/2406 17012KT P6SM OVC015
     FM230900 17008KT 3SM BR VCSH OVC008
     FM231500 32009KT 5SM BR VCSH SCT007 OVC010
     FM231700 34018G28KT P6SM SCT015 OVC025 PROB30 2317/2323 5SM
      -SHRA BKN015
     FM232300 33020G29KT P6SM BKN035=



000
FTUS43 KOAX 230520
TAFOFK
TAF
KOFK 230520Z 2306/2406 19014KT P6SM BKN007
      TEMPO 2306/2308 BKN015
     FM230800 21008KT P6SM OVC015
     FM231100 33011KT P6SM SCT020 OVC035
     FM231500 33015G25KT P6SM SCT015 OVC035 PROB30 2317/2321 5SM
      -SHRA BKN025
     FM232200 33020G30KT P6SM BKN035=



000
FTUS43 KOAX 230520
TAFOFK
TAF
KOFK 230520Z 2306/2406 19014KT P6SM BKN007
      TEMPO 2306/2308 BKN015
     FM230800 21008KT P6SM OVC015
     FM231100 33011KT P6SM SCT020 OVC035
     FM231500 33015G25KT P6SM SCT015 OVC035 PROB30 2317/2321 5SM
      -SHRA BKN025
     FM232200 33020G30KT P6SM BKN035=



000
FTUS43 KOAX 230520
TAFOMA
TAF
KOMA 230520Z 2306/2406 17012KT P6SM OVC015
     FM230900 17008KT 3SM BR VCSH OVC008
     FM231500 32009KT 5SM BR VCSH SCT007 OVC010
     FM231700 34018G28KT P6SM SCT015 OVC025 PROB30 2317/2323 5SM
      -SHRA BKN015
     FM232300 33020G29KT P6SM BKN035=



000
FTUS43 KOAX 230520
TAFLNK
TAF
KLNK 230520Z 2306/2406 19010KT P6SM OVC015
     FM230900 19007KT 5SM BR VCSH OVC008
     FM231400 32009KT 5SM BR VCSH SCT007 OVC015
     FM231600 34018G28KT P6SM SCT015 OVC025 PROB30 2316/2322 5SM
      -SHRA BKN015
     FM232200 34020G29KT P6SM BKN035=



000
FTUS43 KOAX 230359 AAA
TAFOFK
TAF AMD
KOFK 230359Z 2304/2324 18011KT 3SM BR OVC003
      TEMPO 2304/2306 BKN015
     FM230600 21007KT 5SM BR OVC015
     FM231100 33008KT 4SM BR SCT020 OVC035
     FM231500 33015G25KT P6SM SCT015 OVC035 PROB30 2315/2319 5SM
      -SHRA BKN015=



000
FTUS43 KOAX 230359 AAA
TAFOFK
TAF AMD
KOFK 230359Z 2304/2324 18011KT 3SM BR OVC003
      TEMPO 2304/2306 BKN015
     FM230600 21007KT 5SM BR OVC015
     FM231100 33008KT 4SM BR SCT020 OVC035
     FM231500 33015G25KT P6SM SCT015 OVC035 PROB30 2315/2319 5SM
      -SHRA BKN015=



000
FTUS43 KOAX 230359 AAA
TAFOFK
TAF AMD
KOFK 230359Z 2304/2324 18011KT 3SM BR OVC003
      TEMPO 2304/2306 BKN015
     FM230600 21007KT 5SM BR OVC015
     FM231100 33008KT 4SM BR SCT020 OVC035
     FM231500 33015G25KT P6SM SCT015 OVC035 PROB30 2315/2319 5SM
      -SHRA BKN015=



000
FTUS43 KOAX 230359 AAA
TAFOFK
TAF AMD
KOFK 230359Z 2304/2324 18011KT 3SM BR OVC003
      TEMPO 2304/2306 BKN015
     FM230600 21007KT 5SM BR OVC015
     FM231100 33008KT 4SM BR SCT020 OVC035
     FM231500 33015G25KT P6SM SCT015 OVC035 PROB30 2315/2319 5SM
      -SHRA BKN015=



000
FTUS43 KOAX 230358 AAB
TAFOMA
TAF AMD
KOMA 230358Z 2304/2324 17014KT P6SM SCT007 OVC015
      TEMPO 2304/2306 5SM BR OVC007
     FM230600 17011KT 3SM BR OVC007
     FM230800 18007KT 2SM -DZ BR OVC003
     FM231400 32009KT 3SM -SHRA BR SCT007 OVC015
     FM231600 34015G26KT P6SM SCT015 OVC035 PROB30 2316/2321 5SM
      -SHRA BKN025=



000
FTUS43 KOAX 230358 AAB
TAFOMA
TAF AMD
KOMA 230358Z 2304/2324 17014KT P6SM SCT007 OVC015
      TEMPO 2304/2306 5SM BR OVC007
     FM230600 17011KT 3SM BR OVC007
     FM230800 18007KT 2SM -DZ BR OVC003
     FM231400 32009KT 3SM -SHRA BR SCT007 OVC015
     FM231600 34015G26KT P6SM SCT015 OVC035 PROB30 2316/2321 5SM
      -SHRA BKN025=



000
FTUS43 KOAX 230159 AAA
TAFOMA
TAF AMD
KOMA 230159Z 2302/2324 17014KT P6SM OVC007
      TEMPO 2302/2306 4SM BR OVC005
     FM230600 17011KT 3SM BR OVC004
     FM230800 18007KT 2SM -DZ BR OVC003
     FM231400 32009KT 3SM -SHRA BR SCT007 OVC015
     FM231600 34015G26KT P6SM SCT015 OVC035 PROB30 2316/2321 5SM
      -SHRA BKN025=



000
FTUS43 KOAX 230159 AAA
TAFOMA
TAF AMD
KOMA 230159Z 2302/2324 17014KT P6SM OVC007
      TEMPO 2302/2306 4SM BR OVC005
     FM230600 17011KT 3SM BR OVC004
     FM230800 18007KT 2SM -DZ BR OVC003
     FM231400 32009KT 3SM -SHRA BR SCT007 OVC015
     FM231600 34015G26KT P6SM SCT015 OVC035 PROB30 2316/2321 5SM
      -SHRA BKN025=



000
FTUS43 KOAX 230124 AAB
TAFLNK
TAF AMD
KLNK 230124Z 2301/2324 18012KT P6SM OVC015
      TEMPO 2303/2307 5SM BR OVC010
     FM230700 18007KT 5SM BR OVC005
     FM231300 32009KT 4SM -SHRA BR SCT007 OVC015
     FM231600 34015G26KT P6SM SCT015 OVC035 PROB30 2316/2320 5SM
      -SHRA BKN025=



000
FTUS43 KOAX 230124 AAB
TAFLNK
TAF AMD
KLNK 230124Z 2301/2324 18012KT P6SM OVC015
      TEMPO 2303/2307 5SM BR OVC010
     FM230700 18007KT 5SM BR OVC005
     FM231300 32009KT 4SM -SHRA BR SCT007 OVC015
     FM231600 34015G26KT P6SM SCT015 OVC035 PROB30 2316/2320 5SM
      -SHRA BKN025=



000
FTUS43 KOAX 222344 AAA
TAFLNK
TAF AMD
KLNK 222344Z 2300/2324 18012KT P6SM OVC015
     FM230100 17012KT 5SM BR SCT009 OVC012
     FM230200 17012KT 3SM BR OVC010
     FM230700 18007KT 2SM BR OVC005
     FM231300 32009KT 4SM -SHRA BR SCT007 OVC015
     FM231600 34015G26KT P6SM SCT015 OVC035 PROB30 2316/2320 5SM
      -SHRA BKN025=



000
FTUS43 KOAX 222344 AAA
TAFLNK
TAF AMD
KLNK 222344Z 2300/2324 18012KT P6SM OVC015
     FM230100 17012KT 5SM BR SCT009 OVC012
     FM230200 17012KT 3SM BR OVC010
     FM230700 18007KT 2SM BR OVC005
     FM231300 32009KT 4SM -SHRA BR SCT007 OVC015
     FM231600 34015G26KT P6SM SCT015 OVC035 PROB30 2316/2320 5SM
      -SHRA BKN025=



000
FTUS43 KOAX 222320
TAFLNK
TAF
KLNK 222320Z 2300/2324 18010KT P6SM SCT015 SCT030 BKN180
     FM230100 17012KT 5SM BR SCT009 OVC015
     FM230200 17012KT 3SM BR OVC010
     FM230700 18007KT 2SM BR OVC005
     FM231300 32009KT 4SM -SHRA BR SCT007 OVC015
     FM231600 34015G26KT P6SM SCT015 OVC035 PROB30 2316/2320 5SM
      -SHRA BKN025=



000
FTUS43 KOAX 222320
TAFOFK
TAF
KOFK 222320Z 2300/2324 18011KT P6SM BKN180
      TEMPO 2303/2306 BKN015
     FM230600 21007KT 5SM BR OVC015
     FM231100 33008KT 4SM BR SCT020 OVC035
     FM231500 33015G25KT P6SM SCT015 OVC035 PROB30 2315/2319 5SM
      -SHRA BKN015=



000
FTUS43 KOAX 222320
TAFLNK
TAF
KLNK 222320Z 2300/2324 18010KT P6SM SCT015 SCT030 BKN180
     FM230100 17012KT 5SM BR SCT009 OVC015
     FM230200 17012KT 3SM BR OVC010
     FM230700 18007KT 2SM BR OVC005
     FM231300 32009KT 4SM -SHRA BR SCT007 OVC015
     FM231600 34015G26KT P6SM SCT015 OVC035 PROB30 2316/2320 5SM
      -SHRA BKN025=



000
FTUS43 KOAX 222320
TAFOMA
TAF
KOMA 222320Z 2300/2324 17012KT P6SM OVC015
     FM230100 17013KT 5SM BR SCT007 OVC012
     FM230200 17014KT 2SM -DZ BR OVC005
     FM230900 18007KT 1 1/2SM -DZ BR OVC003
     FM231400 32009KT 3SM -SHRA BR SCT007 OVC015
     FM231600 34015G26KT P6SM SCT015 OVC035 PROB30 2316/2321 5SM
      -SHRA BKN025=



000
FTUS43 KOAX 222320
TAFOMA
TAF
KOMA 222320Z 2300/2324 17012KT P6SM OVC015
     FM230100 17013KT 5SM BR SCT007 OVC012
     FM230200 17014KT 2SM -DZ BR OVC005
     FM230900 18007KT 1 1/2SM -DZ BR OVC003
     FM231400 32009KT 3SM -SHRA BR SCT007 OVC015
     FM231600 34015G26KT P6SM SCT015 OVC035 PROB30 2316/2321 5SM
      -SHRA BKN025=



000
FTUS43 KOAX 222320
TAFOFK
TAF
KOFK 222320Z 2300/2324 18011KT P6SM BKN180
      TEMPO 2303/2306 BKN015
     FM230600 21007KT 5SM BR OVC015
     FM231100 33008KT 4SM BR SCT020 OVC035
     FM231500 33015G25KT P6SM SCT015 OVC035 PROB30 2315/2319 5SM
      -SHRA BKN015=



000
FTUS43 KOAX 222300 AAB
TAFOMA
TAF AMD
KOMA 222300Z 2223/2318 17012KT P6SM OVC020
     FM230100 17012KT 5SM BR OVC015
     FM230500 17013KT 5SM BR SCT004 OVC010
      TEMPO 2312/2315 2SM BR OVC003
     FM231500 32009KT 4SM -DZ BR SCT007 OVC015=



000
FTUS43 KOAX 222300 AAB
TAFOMA
TAF AMD
KOMA 222300Z 2223/2318 17012KT P6SM OVC020
     FM230100 17012KT 5SM BR OVC015
     FM230500 17013KT 5SM BR SCT004 OVC010
      TEMPO 2312/2315 2SM BR OVC003
     FM231500 32009KT 4SM -DZ BR SCT007 OVC015=



000
FTUS43 KOAX 221901 AAA
TAFOMA
TAF AMD
KOMA 221901Z 2219/2318 19012KT P6SM FEW008 SCT250
     FM230100 17012KT 5SM BR SCT010 BKN250
     FM230500 17013KT 5SM BR SCT004 OVC010
      TEMPO 2312/2315 2SM BR OVC003
     FM231500 32009KT 4SM -DZ BR SCT007 OVC015=



000
FTUS43 KOAX 221901 AAA
TAFOMA
TAF AMD
KOMA 221901Z 2219/2318 19012KT P6SM FEW008 SCT250
     FM230100 17012KT 5SM BR SCT010 BKN250
     FM230500 17013KT 5SM BR SCT004 OVC010
      TEMPO 2312/2315 2SM BR OVC003
     FM231500 32009KT 4SM -DZ BR SCT007 OVC015=



000
FTUS43 KOAX 221831 AAA
TAFLNK
TAF AMD
KLNK 221831Z 2219/2318 20013KT P6SM SCT009 SCT250
     FM230500 18011KT 5SM BR SCT009 OVC250
     FM230800 19010KT 5SM BR OVC009
      TEMPO 2310/2313 2SM BR OVC004
     FM231400 34015KT 4SM -DZ BR SCT004 OVC015=



000
FTUS43 KOAX 221831 AAA
TAFLNK
TAF AMD
KLNK 221831Z 2219/2318 20013KT P6SM SCT009 SCT250
     FM230500 18011KT 5SM BR SCT009 OVC250
     FM230800 19010KT 5SM BR OVC009
      TEMPO 2310/2313 2SM BR OVC004
     FM231400 34015KT 4SM -DZ BR SCT004 OVC015=



000
FTUS43 KOAX 221722
TAFOMA
TAF
KOMA 221722Z 2218/2318 19013KT 3SM BR OVC005
      TEMPO 2218/2219 2SM BR OVC003
     FM222100 19012KT 5SM BR SCT005 BKN250
     FM230100 17012KT 5SM BR SCT010 BKN250
     FM230500 17013KT 5SM BR SCT004 OVC010
      TEMPO 2312/2315 2SM BR OVC003
     FM231500 32009KT 4SM -DZ BR SCT007 OVC015=



000
FTUS43 KOAX 221722
TAFOFK
TAF
KOFK 221722Z 2218/2318 19011KT P6SM FEW005
     FM230900 26007KT P6SM SCT020 BKN250
     FM231200 33006KT 4SM BR SCT020 OVC060
     FM231500 33015KT P6SM SCT007 OVC020=



000
FTUS43 KOAX 221722
TAFLNK
TAF
KLNK 221722Z 2218/2318 20015KT 3SM BR OVC005
      TEMPO 2218/2219 2SM BR
     FM222100 19012KT 5SM BR SCT005 BKN250
     FM230500 18011KT 5SM BR SCT009 OVC250
     FM230800 19010KT 5SM BR OVC009
      TEMPO 2310/2313 2SM BR OVC004
     FM231400 34015KT 4SM -DZ BR SCT004 OVC015=



000
FTUS43 KOAX 221722
TAFLNK
TAF
KLNK 221722Z 2218/2318 20015KT 3SM BR OVC005
      TEMPO 2218/2219 2SM BR
     FM222100 19012KT 5SM BR SCT005 BKN250
     FM230500 18011KT 5SM BR SCT009 OVC250
     FM230800 19010KT 5SM BR OVC009
      TEMPO 2310/2313 2SM BR OVC004
     FM231400 34015KT 4SM -DZ BR SCT004 OVC015=



000
FTUS43 KOAX 221722
TAFOFK
TAF
KOFK 221722Z 2218/2318 19011KT P6SM FEW005
     FM230900 26007KT P6SM SCT020 BKN250
     FM231200 33006KT 4SM BR SCT020 OVC060
     FM231500 33015KT P6SM SCT007 OVC020=



000
FTUS43 KOAX 221722
TAFOMA
TAF
KOMA 221722Z 2218/2318 19013KT 3SM BR OVC005
      TEMPO 2218/2219 2SM BR OVC003
     FM222100 19012KT 5SM BR SCT005 BKN250
     FM230100 17012KT 5SM BR SCT010 BKN250
     FM230500 17013KT 5SM BR SCT004 OVC010
      TEMPO 2312/2315 2SM BR OVC003
     FM231500 32009KT 4SM -DZ BR SCT007 OVC015=



000
FTUS43 KOAX 221605 AAB
TAFOMA
TAF AMD
KOMA 221605Z 2216/2312 19012KT 3SM BR OVC005
      TEMPO 2216/2218 2SM BR OVC003
     FM221900 19012KT P6SM SCT005 BKN250
     FM230000 17013KT P6SM BKN250
     FM230500 18010KT 5SM BR OVC020=



000
FTUS43 KOAX 221605 AAB
TAFOMA
TAF AMD
KOMA 221605Z 2216/2312 19012KT 3SM BR OVC005
      TEMPO 2216/2218 2SM BR OVC003
     FM221900 19012KT P6SM SCT005 BKN250
     FM230000 17013KT P6SM BKN250
     FM230500 18010KT 5SM BR OVC020=



000
FTUS43 KOAX 221605 AAB
TAFOMA
TAF AMD
KOMA 221605Z 2216/2312 19012KT 3SM BR OVC005
      TEMPO 2216/2218 2SM BR OVC003
     FM221900 19012KT P6SM SCT005 BKN250
     FM230000 17013KT P6SM BKN250
     FM230500 18010KT 5SM BR OVC020=



000
FTUS43 KOAX 221605 AAB
TAFOMA
TAF AMD
KOMA 221605Z 2216/2312 19012KT 3SM BR OVC005
      TEMPO 2216/2218 2SM BR OVC003
     FM221900 19012KT P6SM SCT005 BKN250
     FM230000 17013KT P6SM BKN250
     FM230500 18010KT 5SM BR OVC020=



000
FTUS43 KOAX 221525 AAB
TAFOFK
TAF AMD
KOFK 221525Z 2215/2312 20014KT 3SM BR OVC003
      TEMPO 2215/2217 1SM BR
     FM221800 21014KT P6SM SCT003 SCT250
     FM230900 26007KT P6SM BKN250=



000
FTUS43 KOAX 221525 AAB
TAFOFK
TAF AMD
KOFK 221525Z 2215/2312 20014KT 3SM BR OVC003
      TEMPO 2215/2217 1SM BR
     FM221800 21014KT P6SM SCT003 SCT250
     FM230900 26007KT P6SM BKN250=



000
FTUS43 KOAX 221523 AAB
TAFLNK
TAF AMD
KLNK 221523Z 2215/2312 21011KT 4SM BR OVC003
      TEMPO 2215/2217 2SM BR
     FM221700 20013KT P6SM SCT005 BKN250
     FM230100 18010KT 6SM BR BKN250
     FM231000 22007KT 5SM BR OVC020=



000
FTUS43 KOAX 221523 AAB
TAFLNK
TAF AMD
KLNK 221523Z 2215/2312 21011KT 4SM BR OVC003
      TEMPO 2215/2217 2SM BR
     FM221700 20013KT P6SM SCT005 BKN250
     FM230100 18010KT 6SM BR BKN250
     FM231000 22007KT 5SM BR OVC020=



000
FTUS43 KOAX 221335 AAA
TAFOMA
TAF AMD
KOMA 221335Z 2214/2312 18009KT 2SM BR OVC005
      TEMPO 2215/2218 5SM SCT007 OVC012
     FM221800 19012KT P6SM SCT250
     FM230000 17013KT P6SM BKN250
     FM230500 18010KT 5SM BR OVC020=



000
FTUS43 KOAX 221335 AAA
TAFOMA
TAF AMD
KOMA 221335Z 2214/2312 18009KT 2SM BR OVC005
      TEMPO 2215/2218 5SM SCT007 OVC012
     FM221800 19012KT P6SM SCT250
     FM230000 17013KT P6SM BKN250
     FM230500 18010KT 5SM BR OVC020=



000
FTUS43 KOAX 221310 AAA
TAFLNK
TAF AMD
KLNK 221310Z 2213/2312 21008KT 4SM BR OVC004
      TEMPO 2213/2215 2SM BR
     FM221500 21009KT 4SM BR OVC007
      TEMPO 2215/2217 6SM BR BKN012
     FM221700 20013KT P6SM SCT250
     FM230100 18010KT 6SM BR BKN250
     FM231000 22007KT 5SM BR OVC020=



000
FTUS43 KOAX 221310 AAA
TAFLNK
TAF AMD
KLNK 221310Z 2213/2312 21008KT 4SM BR OVC004
      TEMPO 2213/2215 2SM BR
     FM221500 21009KT 4SM BR OVC007
      TEMPO 2215/2217 6SM BR BKN012
     FM221700 20013KT P6SM SCT250
     FM230100 18010KT 6SM BR BKN250
     FM231000 22007KT 5SM BR OVC020=



000
FTUS43 KOAX 221307 AAA
TAFOFK
TAF AMD
KOFK 221307Z 2213/2312 20014KT 3SM BR OVC004
      TEMPO 2214/2216 5SM BR SCT006
     FM221600 21014KT P6SM SCT250
     FM230900 26007KT P6SM BKN250=



000
FTUS43 KOAX 221307 AAA
TAFOFK
TAF AMD
KOFK 221307Z 2213/2312 20014KT 3SM BR OVC004
      TEMPO 2214/2216 5SM BR SCT006
     FM221600 21014KT P6SM SCT250
     FM230900 26007KT P6SM BKN250=



000
FTUS43 KOAX 221121
TAFLNK
TAF
KLNK 221121Z 2212/2312 20006KT 4SM BR OVC006
     FM221400 20008KT 3SM BR OVC006
      TEMPO 2214/2216 6SM BR BKN012
     FM221600 20012KT P6SM SCT250
     FM230100 18010KT 6SM BR BKN250
     FM231000 22007KT 5SM BR OVC020=



000
FTUS43 KOAX 221121
TAFOFK
TAF
KOFK 221121Z 2212/2312 20008KT 5SM BR SCT008
      TEMPO 2212/2214 3SM BR OVC006
     FM221400 21012KT P6SM SCT250
     FM230900 26007KT P6SM BKN250=



000
FTUS43 KOAX 221121
TAFOMA
TAF
KOMA 221121Z 2212/2312 16007KT 2SM BR OVC006
      TEMPO 2213/2216 5SM SCT007 OVC015
     FM221600 19012KT P6SM SCT250
     FM230000 17013KT P6SM BKN250
     FM230500 18010KT 5SM BR OVC020=



000
FTUS43 KOAX 221121
TAFOMA
TAF
KOMA 221121Z 2212/2312 16007KT 2SM BR OVC006
      TEMPO 2213/2216 5SM SCT007 OVC015
     FM221600 19012KT P6SM SCT250
     FM230000 17013KT P6SM BKN250
     FM230500 18010KT 5SM BR OVC020=



000
FTUS43 KOAX 221121
TAFLNK
TAF
KLNK 221121Z 2212/2312 20006KT 4SM BR OVC006
     FM221400 20008KT 3SM BR OVC006
      TEMPO 2214/2216 6SM BR BKN012
     FM221600 20012KT P6SM SCT250
     FM230100 18010KT 6SM BR BKN250
     FM231000 22007KT 5SM BR OVC020=



000
FTUS43 KOAX 221121
TAFOFK
TAF
KOFK 221121Z 2212/2312 20008KT 5SM BR SCT008
      TEMPO 2212/2214 3SM BR OVC006
     FM221400 21012KT P6SM SCT250
     FM230900 26007KT P6SM BKN250=



000
FTUS43 KOAX 220902 AAA
TAFLNK
TAF AMD
KLNK 220902Z 2209/2306 20006KT 6SM BR SCT005 OVC012
      TEMPO 2209/2212 3SM BR OVC005
     FM221200 20008KT 3SM BR OVC005
      TEMPO 2212/2216 6SM BR BKN012
     FM221600 20010KT P6SM SCT250
      TEMPO 2221/2301 BKN015
     FM230100 18007KT 5SM BR OVC007=



000
FTUS43 KOAX 220902 AAA
TAFLNK
TAF AMD
KLNK 220902Z 2209/2306 20006KT 6SM BR SCT005 OVC012
      TEMPO 2209/2212 3SM BR OVC005
     FM221200 20008KT 3SM BR OVC005
      TEMPO 2212/2216 6SM BR BKN012
     FM221600 20010KT P6SM SCT250
      TEMPO 2221/2301 BKN015
     FM230100 18007KT 5SM BR OVC007=



000
FTUS43 KOAX 220859 AAA
TAFOMA
TAF AMD
KOMA 220859Z 2209/2306 16007KT 2SM BR OVC005
      TEMPO 2213/2216 4SM SCT007 OVC015
     FM221600 19010KT P6SM SCT250
      TEMPO 2221/2301 BKN015
     FM230100 16009KT 5SM BR OVC007=



000
FTUS43 KOAX 220859 AAA
TAFOMA
TAF AMD
KOMA 220859Z 2209/2306 16007KT 2SM BR OVC005
      TEMPO 2213/2216 4SM SCT007 OVC015
     FM221600 19010KT P6SM SCT250
      TEMPO 2221/2301 BKN015
     FM230100 16009KT 5SM BR OVC007=



000
FTUS43 KOAX 220852 AAB
TAFOFK
TAF AMD
KOFK 220852Z 2209/2306 20008KT 2SM BR OVC004
      TEMPO 2210/2213 3SM BR SCT010
     FM221300 20010KT P6SM SCT250
      TEMPO 2301/2303 BKN015
     FM230300 19009KT 5SM BR OVC015=



000
FTUS43 KOAX 220636 AAA
TAFOFK
TAF AMD
KOFK 220636Z 2207/2306 20006KT 5SM BR OVC008
      TEMPO 2208/2212 3SM BR SCT012
     FM221200 20010KT P6SM SCT250
      TEMPO 2301/2303 BKN015
     FM230300 19009KT 5SM BR OVC015=



000
FTUS43 KOAX 220636 AAA
TAFOFK
TAF AMD
KOFK 220636Z 2207/2306 20006KT 5SM BR OVC008
      TEMPO 2208/2212 3SM BR SCT012
     FM221200 20010KT P6SM SCT250
      TEMPO 2301/2303 BKN015
     FM230300 19009KT 5SM BR OVC015=



000
FTUS43 KOAX 220521
TAFOMA
TAF
KOMA 220521Z 2206/2306 17008KT 1 1/2SM -DZ BR OVC004
      TEMPO 2213/2216 4SM SCT007 OVC015
     FM221600 19010KT P6SM SCT250
      TEMPO 2221/2301 BKN015
     FM230100 16009KT 5SM BR OVC007=



000
FTUS43 KOAX 220521
TAFOFK
TAF
KOFK 220521Z 2206/2306 19006KT P6SM OVC012
      TEMPO 2208/2212 5SM BR SCT015
     FM221200 20010KT P6SM SCT250
      TEMPO 2301/2303 BKN015
     FM230300 19009KT 5SM BR OVC015=



000
FTUS43 KOAX 220521
TAFLNK
TAF
KLNK 220521Z 2206/2306 19006KT 4SM BR SCT003 OVC006
      TEMPO 2212/2216 5SM BR BKN015
     FM221600 20010KT P6SM SCT250
      TEMPO 2221/2301 BKN015
     FM230100 18007KT 5SM BR OVC007=



000
FTUS43 KOAX 220521
TAFOFK
TAF
KOFK 220521Z 2206/2306 19006KT P6SM OVC012
      TEMPO 2208/2212 5SM BR SCT015
     FM221200 20010KT P6SM SCT250
      TEMPO 2301/2303 BKN015
     FM230300 19009KT 5SM BR OVC015=



000
FTUS43 KOAX 220521
TAFOMA
TAF
KOMA 220521Z 2206/2306 17008KT 1 1/2SM -DZ BR OVC004
      TEMPO 2213/2216 4SM SCT007 OVC015
     FM221600 19010KT P6SM SCT250
      TEMPO 2221/2301 BKN015
     FM230100 16009KT 5SM BR OVC007=



000
FTUS43 KOAX 220521
TAFLNK
TAF
KLNK 220521Z 2206/2306 19006KT 4SM BR SCT003 OVC006
      TEMPO 2212/2216 5SM BR BKN015
     FM221600 20010KT P6SM SCT250
      TEMPO 2221/2301 BKN015
     FM230100 18007KT 5SM BR OVC007=



000
FTUS43 KOAX 220416 AAA
TAFOMA
TAF AMD
KOMA 220416Z 2204/2224 17008KT 3SM BR SCT003 OVC005
     FM221600 19010KT P6SM SCT015
      TEMPO 2221/2224 BKN015=



000
FTUS43 KOAX 220416 AAA
TAFOMA
TAF AMD
KOMA 220416Z 2204/2224 17008KT 3SM BR SCT003 OVC005
     FM221600 19010KT P6SM SCT015
      TEMPO 2221/2224 BKN015=



000
FTUS43 KOAX 220415 AAA
TAFLNK
TAF AMD
KLNK 220415Z 2204/2224 19006KT 3SM BR SCT003 OVC005
     FM221600 20010KT P6SM SCT015
      TEMPO 2221/2224 BKN015=



    US Dept of Commerce
    National Oceanic and Atmospheric Administration
    National Weather Service
    1325 East West Highway
    Silver Spring, MD 20910
    Page Author: NWS Internet Services Team
Disclaimer
Information Quality
Credits
Glossary
Privacy Policy
Freedom of Information Act (FOIA)
About Us
Career Opportunities